sensor_id;sensor_type;location;lat;lon;timestamp;temperature;humidity
9167;DHT22;4618;48.818;9.088;2022-07-26T00:00:11;22.00;99.90
9167;DHT22;4618;48.818;9.088;2022-07-26T00:02:41;21.90;99.90
9167;DHT22;4618;48.818;9.088;2022-07-26T00:05:07;21.90;99.90
9167;DHT22;4618;48.818;9.088;2022-07-26T00:07:33;21.90;99.90
9167;DHT22;4618;48.818;9.088;2022-07-26T00:09:58;21.80;99.90
9167;DHT22;4618;48.818;9.088;2022-07-26T00:12:24;21.70;99.90
9167;DHT22;4618;48.818;9.088;2022-07-26T00:14:49;21.60;99.90
9167;DHT22;4618;48.818;9.088;2022-07-26T00:17:15;21.60;99.90
9167;DHT22;4618;48.818;9.088;2022-07-26T00:19:41;21.60;99.90
9167;DHT22;4618;48.818;9.088;2022-07-26T00:22:06;21.70;99.90
9167;DHT22;4618;48.818;9.088;2022-07-26T00:24:51;21.80;99.90
9167;DHT22;4618;48.818;9.088;2022-07-26T00:27:16;21.90;99.90
9167;DHT22;4618;48.818;9.088;2022-07-26T00:29:42;21.90;99.90
9167;DHT22;4618;48.818;9.088;2022-07-26T00:32:08;22.00;99.90
9167;DHT22;4618;48.818;9.088;2022-07-26T00:34:33;21.90;99.90
9167;DHT22;4618;48.818;9.088;2022-07-26T00:36:59;21.90;99.90
9167;DHT22;4618;48.818;9.088;2022-07-26T00:39:24;22.00;99.90
9167;DHT22;4618;48.818;9.088;2022-07-26T00:41:50;22.00;99.90
9167;DHT22;4618;48.818;9.088;2022-07-26T00:44:16;22.00;99.90
9167;DHT22;4618;48.818;9.088;2022-07-26T00:46:42;22.10;99.90
9167;DHT22;4618;48.818;9.088;2022-07-26T00:49:09;22.10;99.90
9167;DHT22;4618;48.818;9.088;2022-07-26T00:51:35;22.10;99.90
9167;DHT22;4618;48.818;9.088;2022-07-26T00:54:01;22.30;99.90
9167;DHT22;4618;48.818;9.088;2022-07-26T00:56:26;22.20;99.90
9167;DHT22;4618;48.818;9.088;2022-07-26T00:58:52;22.30;99.90
9167;DHT22;4618;48.818;9.088;2022-07-26T01:01:18;22.40;99.90
9167;DHT22;4618;48.818;9.088;2022-07-26T01:03:44;22.30;99.90
9167;DHT22;4618;48.818;9.088;2022-07-26T01:06:09;22.00;1.00
9167;DHT22;4618;48.818;9.088;2022-07-26T01:08:36;21.20;1.00
9167;DHT22;4618;48.818;9.088;2022-07-26T01:11:01;20.60;1.00
9167;DHT22;4618;48.818;9.088;2022-07-26T01:13:27;20.00;1.00
9167;DHT22;4618;48.818;9.088;2022-07-26T01:15:53;19.70;99.90
9167;DHT22;4618;48.818;9.088;2022-07-26T01:18:18;19.60;1.00
9167;DHT22;4618;48.818;9.088;2022-07-26T01:20:44;19.40;99.90
9167;DHT22;4618;48.818;9.088;2022-07-26T01:23:10;19.20;99.90
9167;DHT22;4618;48.818;9.088;2022-07-26T01:25:37;19.10;99.90
9167;DHT22;4618;48.818;9.088;2022-07-26T01:28:15;19.10;1.00
9167;DHT22;4618;48.818;9.088;2022-07-26T01:30:41;18.90;99.90
9167;DHT22;4618;48.818;9.088;2022-07-26T01:33:06;18.80;1.00
9167;DHT22;4618;48.818;9.088;2022-07-26T01:35:32;18.80;99.90
9167;DHT22;4618;48.818;9.088;2022-07-26T01:37:58;18.80;1.00
9167;DHT22;4618;48.818;9.088;2022-07-26T01:40:23;18.70;1.00
9167;DHT22;4618;48.818;9.088;2022-07-26T01:42:49;18.60;1.00
9167;DHT22;4618;48.818;9.088;2022-07-26T01:45:14;18.70;1.00
9167;DHT22;4618;48.818;9.088;2022-07-26T01:47:40;18.80;1.00
9167;DHT22;4618;48.818;9.088;2022-07-26T01:50:07;18.70;1.00
9167;DHT22;4618;48.818;9.088;2022-07-26T01:52:32;18.80;1.00
9167;DHT22;4618;48.818;9.088;2022-07-26T01:55:00;18.90;1.00
9167;DHT22;4618;48.818;9.088;2022-07-26T01:57:25;19.00;1.00
9167;DHT22;4618;48.818;9.088;2022-07-26T01:59:51;19.00;99.90
9167;DHT22;4618;48.818;9.088;2022-07-26T02:02:16;19.00;1.00
9167;DHT22;4618;48.818;9.088;2022-07-26T02:04:42;19.00;1.00
9167;DHT22;4618;48.818;9.088;2022-07-26T02:07:26;19.10;1.00
9167;DHT22;4618;48.818;9.088;2022-07-26T02:09:52;19.00;1.00
9167;DHT22;4618;48.818;9.088;2022-07-26T02:12:17;19.00;17.10
9167;DHT22;4618;48.818;9.088;2022-07-26T02:14:43;19.00;99.90
9167;DHT22;4618;48.818;9.088;2022-07-26T02:17:08;19.00;99.90
9167;DHT22;4618;48.818;9.088;2022-07-26T02:19:34;19.00;99.90
9167;DHT22;4618;48.818;9.088;2022-07-26T02:22:00;19.00;99.90
9167;DHT22;4618;48.818;9.088;2022-07-26T02:24:26;19.10;99.90
9167;DHT22;4618;48.818;9.088;2022-07-26T02:26:56;19.10;99.90
9167;DHT22;4618;48.818;9.088;2022-07-26T02:29:23;19.10;99.90
9167;DHT22;4618;48.818;9.088;2022-07-26T02:31:48;19.10;99.90
9167;DHT22;4618;48.818;9.088;2022-07-26T02:34:14;19.10;99.90
9167;DHT22;4618;48.818;9.088;2022-07-26T02:36:39;19.30;99.90
9167;DHT22;4618;48.818;9.088;2022-07-26T02:39:05;19.50;99.90
9167;DHT22;4618;48.818;9.088;2022-07-26T02:41:31;19.60;99.90
9167;DHT22;4618;48.818;9.088;2022-07-26T02:43:57;19.60;73.80
9167;DHT22;4618;48.818;9.088;2022-07-26T02:46:22;19.60;1.00
9167;DHT22;4618;48.818;9.088;2022-07-26T02:48:48;19.40;16.00
9167;DHT22;4618;48.818;9.088;2022-07-26T02:51:14;19.40;1.00
9167;DHT22;4618;48.818;9.088;2022-07-26T02:53:40;19.40;1.00
9167;DHT22;4618;48.818;9.088;2022-07-26T02:56:06;19.50;99.90
9167;DHT22;4618;48.818;9.088;2022-07-26T02:58:31;19.60;99.90
9167;DHT22;4618;48.818;9.088;2022-07-26T03:00:57;19.50;99.90
9167;DHT22;4618;48.818;9.088;2022-07-26T03:03:23;19.50;99.90
9167;DHT22;4618;48.818;9.088;2022-07-26T03:05:48;19.50;39.80
9167;DHT22;4618;48.818;9.088;2022-07-26T03:08:14;19.50;99.90
9167;DHT22;4618;48.818;9.088;2022-07-26T03:10:39;19.60;1.00
9167;DHT22;4618;48.818;9.088;2022-07-26T03:13:05;19.60;1.00
9167;DHT22;4618;48.818;9.088;2022-07-26T03:15:31;19.60;1.00
9167;DHT22;4618;48.818;9.088;2022-07-26T03:17:57;19.60;1.00
9167;DHT22;4618;48.818;9.088;2022-07-26T03:20:22;19.50;1.00
9167;DHT22;4618;48.818;9.088;2022-07-26T03:22:48;19.50;1.00
9167;DHT22;4618;48.818;9.088;2022-07-26T03:25:13;19.30;1.00
9167;DHT22;4618;48.818;9.088;2022-07-26T03:27:39;19.30;1.00
9167;DHT22;4618;48.818;9.088;2022-07-26T03:30:05;19.30;1.00
9167;DHT22;4618;48.818;9.088;2022-07-26T03:32:31;19.30;1.00
9167;DHT22;4618;48.818;9.088;2022-07-26T03:34:57;19.30;1.00
9167;DHT22;4618;48.818;9.088;2022-07-26T03:37:22;19.30;1.00
9167;DHT22;4618;48.818;9.088;2022-07-26T03:39:48;19.20;1.00
9167;DHT22;4618;48.818;9.088;2022-07-26T03:42:14;19.10;1.00
9167;DHT22;4618;48.818;9.088;2022-07-26T03:44:40;19.20;1.00
9167;DHT22;4618;48.818;9.088;2022-07-26T03:47:06;19.00;1.00
9167;DHT22;4618;48.818;9.088;2022-07-26T03:49:32;19.00;55.10
9167;DHT22;4618;48.818;9.088;2022-07-26T03:51:57;18.90;99.40
9167;DHT22;4618;48.818;9.088;2022-07-26T03:54:23;18.90;44.30
9167;DHT22;4618;48.818;9.088;2022-07-26T03:56:48;18.80;99.90
9167;DHT22;4618;48.818;9.088;2022-07-26T03:59:14;18.80;99.90
9167;DHT22;4618;48.818;9.088;2022-07-26T04:01:41;18.80;49.30
9167;DHT22;4618;48.818;9.088;2022-07-26T04:04:10;18.90;29.60
9167;DHT22;4618;48.818;9.088;2022-07-26T04:06:36;18.80;94.50
9167;DHT22;4618;48.818;9.088;2022-07-26T04:09:03;18.90;1.00
9167;DHT22;4618;48.818;9.088;2022-07-26T04:11:29;18.80;1.00
9167;DHT22;4618;48.818;9.088;2022-07-26T04:13:56;18.90;1.00
9167;DHT22;4618;48.818;9.088;2022-07-26T04:16:22;18.90;1.00
9167;DHT22;4618;48.818;9.088;2022-07-26T04:18:47;18.90;1.00
9167;DHT22;4618;48.818;9.088;2022-07-26T04:21:13;18.90;1.00
9167;DHT22;4618;48.818;9.088;2022-07-26T04:23:39;18.80;1.00
9167;DHT22;4618;48.818;9.088;2022-07-26T04:26:04;18.80;1.00
9167;DHT22;4618;48.818;9.088;2022-07-26T04:28:30;18.80;1.00
9167;DHT22;4618;48.818;9.088;2022-07-26T04:30:57;18.90;1.00
9167;DHT22;4618;48.818;9.088;2022-07-26T04:33:23;18.90;1.00
9167;DHT22;4618;48.818;9.088;2022-07-26T04:35:49;18.80;1.00
9167;DHT22;4618;48.818;9.088;2022-07-26T04:38:15;18.80;1.00
9167;DHT22;4618;48.818;9.088;2022-07-26T04:40:40;18.80;1.00
9167;DHT22;4618;48.818;9.088;2022-07-26T04:43:06;18.90;1.00
9167;DHT22;4618;48.818;9.088;2022-07-26T04:45:32;18.80;1.00
9167;DHT22;4618;48.818;9.088;2022-07-26T04:47:57;18.90;99.90
9167;DHT22;4618;48.818;9.088;2022-07-26T04:50:23;19.00;1.00
9167;DHT22;4618;48.818;9.088;2022-07-26T04:52:50;19.00;99.90
9167;DHT22;4618;48.818;9.088;2022-07-26T04:55:17;19.10;99.90
9167;DHT22;4618;48.818;9.088;2022-07-26T04:57:42;19.10;99.90
9167;DHT22;4618;48.818;9.088;2022-07-26T05:00:10;19.20;99.90
9167;DHT22;4618;48.818;9.088;2022-07-26T05:02:36;19.30;99.90
9167;DHT22;4618;48.818;9.088;2022-07-26T05:05:02;19.40;99.90
9167;DHT22;4618;48.818;9.088;2022-07-26T05:07:41;19.70;1.00
9167;DHT22;4618;48.818;9.088;2022-07-26T05:10:08;19.80;1.00
9167;DHT22;4618;48.818;9.088;2022-07-26T05:12:33;20.00;1.00
9167;DHT22;4618;48.818;9.088;2022-07-26T05:14:59;20.10;1.00
9167;DHT22;4618;48.818;9.088;2022-07-26T05:17:24;20.10;99.90
9167;DHT22;4618;48.818;9.088;2022-07-26T05:19:50;20.20;99.90
9167;DHT22;4618;48.818;9.088;2022-07-26T05:22:15;20.10;99.90
9167;DHT22;4618;48.818;9.088;2022-07-26T05:24:41;20.00;99.90
9167;DHT22;4618;48.818;9.088;2022-07-26T05:27:07;19.90;1.00
9167;DHT22;4618;48.818;9.088;2022-07-26T05:29:32;19.90;99.90
9167;DHT22;4618;48.818;9.088;2022-07-26T05:31:59;19.80;1.00
9167;DHT22;4618;48.818;9.088;2022-07-26T05:34:24;19.70;1.00
9167;DHT22;4618;48.818;9.088;2022-07-26T05:36:50;19.70;1.00
9167;DHT22;4618;48.818;9.088;2022-07-26T05:39:15;19.60;1.00
9167;DHT22;4618;48.818;9.088;2022-07-26T05:41:41;19.70;1.00
9167;DHT22;4618;48.818;9.088;2022-07-26T05:44:06;19.70;1.00
9167;DHT22;4618;48.818;9.088;2022-07-26T05:46:34;19.70;1.00
9167;DHT22;4618;48.818;9.088;2022-07-26T05:49:02;19.80;1.00
9167;DHT22;4618;48.818;9.088;2022-07-26T05:51:28;19.80;99.90
9167;DHT22;4618;48.818;9.088;2022-07-26T05:53:54;19.90;99.90
9167;DHT22;4618;48.818;9.088;2022-07-26T05:56:20;20.00;99.90
9167;DHT22;4618;48.818;9.088;2022-07-26T05:58:46;20.10;99.90
9167;DHT22;4618;48.818;9.088;2022-07-26T06:01:11;20.20;14.00
9167;DHT22;4618;48.818;9.088;2022-07-26T06:03:37;20.30;1.00
9167;DHT22;4618;48.818;9.088;2022-07-26T06:06:03;20.30;1.00
9167;DHT22;4618;48.818;9.088;2022-07-26T06:08:29;20.50;1.00
9167;DHT22;4618;48.818;9.088;2022-07-26T06:10:55;20.60;99.90
9167;DHT22;4618;48.818;9.088;2022-07-26T06:13:20;20.70;1.00
9167;DHT22;4618;48.818;9.088;2022-07-26T06:15:47;20.80;1.00
9167;DHT22;4618;48.818;9.088;2022-07-26T06:18:13;20.90;1.00
9167;DHT22;4618;48.818;9.088;2022-07-26T06:20:40;20.90;99.90
9167;DHT22;4618;48.818;9.088;2022-07-26T06:23:06;20.80;99.90
9167;DHT22;4618;48.818;9.088;2022-07-26T06:25:31;20.90;99.90
9167;DHT22;4618;48.818;9.088;2022-07-26T06:27:57;20.90;99.90
9167;DHT22;4618;48.818;9.088;2022-07-26T06:30:23;20.80;10.60
9167;DHT22;4618;48.818;9.088;2022-07-26T06:32:48;20.80;1.00
9167;DHT22;4618;48.818;9.088;2022-07-26T06:35:14;20.90;1.00
9167;DHT22;4618;48.818;9.088;2022-07-26T06:37:41;20.90;1.00
9167;DHT22;4618;48.818;9.088;2022-07-26T06:40:08;21.00;1.00
9167;DHT22;4618;48.818;9.088;2022-07-26T06:42:35;21.00;1.00
9167;DHT22;4618;48.818;9.088;2022-07-26T06:45:02;21.00;1.00
9167;DHT22;4618;48.818;9.088;2022-07-26T06:47:28;21.10;1.00
9167;DHT22;4618;48.818;9.088;2022-07-26T06:49:53;21.20;99.90
9167;DHT22;4618;48.818;9.088;2022-07-26T06:52:19;21.30;99.90
9167;DHT22;4618;48.818;9.088;2022-07-26T06:54:44;21.40;99.90
9167;DHT22;4618;48.818;9.088;2022-07-26T06:57:10;21.50;99.90
9167;DHT22;4618;48.818;9.088;2022-07-26T06:59:36;21.60;99.90
9167;DHT22;4618;48.818;9.088;2022-07-26T07:02:02;21.70;99.90
9167;DHT22;4618;48.818;9.088;2022-07-26T07:04:28;21.80;99.90
9167;DHT22;4618;48.818;9.088;2022-07-26T07:06:54;21.90;99.90
9167;DHT22;4618;48.818;9.088;2022-07-26T07:09:20;21.80;99.90
9167;DHT22;4618;48.818;9.088;2022-07-26T07:11:45;21.80;99.90
9167;DHT22;4618;48.818;9.088;2022-07-26T07:14:13;21.80;99.90
9167;DHT22;4618;48.818;9.088;2022-07-26T07:16:39;21.90;99.90
9167;DHT22;4618;48.818;9.088;2022-07-26T07:19:04;22.00;99.90
9167;DHT22;4618;48.818;9.088;2022-07-26T07:21:30;22.00;99.90
9167;DHT22;4618;48.818;9.088;2022-07-26T07:23:56;21.90;99.90
9167;DHT22;4618;48.818;9.088;2022-07-26T07:26:22;21.90;99.90
9167;DHT22;4618;48.818;9.088;2022-07-26T07:28:47;21.90;99.90
9167;DHT22;4618;48.818;9.088;2022-07-26T07:31:13;22.00;99.90
9167;DHT22;4618;48.818;9.088;2022-07-26T07:33:39;22.10;99.90
9167;DHT22;4618;48.818;9.088;2022-07-26T07:36:04;22.20;99.90
9167;DHT22;4618;48.818;9.088;2022-07-26T07:38:30;22.50;99.90
9167;DHT22;4618;48.818;9.088;2022-07-26T07:40:56;22.80;99.90
9167;DHT22;4618;48.818;9.088;2022-07-26T07:43:21;23.00;99.90
9167;DHT22;4618;48.818;9.088;2022-07-26T07:45:47;23.30;99.90
9167;DHT22;4618;48.818;9.088;2022-07-26T07:48:12;23.60;99.90
9167;DHT22;4618;48.818;9.088;2022-07-26T07:50:38;23.90;99.90
9167;DHT22;4618;48.818;9.088;2022-07-26T07:53:04;23.60;99.90
9167;DHT22;4618;48.818;9.088;2022-07-26T07:55:29;23.80;99.90
9167;DHT22;4618;48.818;9.088;2022-07-26T07:57:55;23.70;99.90
9167;DHT22;4618;48.818;9.088;2022-07-26T08:00:20;23.20;99.90
9167;DHT22;4618;48.818;9.088;2022-07-26T08:02:46;23.30;99.90
9167;DHT22;4618;48.818;9.088;2022-07-26T08:05:12;23.80;99.90
9167;DHT22;4618;48.818;9.088;2022-07-26T08:07:38;24.40;99.90
9167;DHT22;4618;48.818;9.088;2022-07-26T08:10:04;24.80;99.90
9167;DHT22;4618;48.818;9.088;2022-07-26T08:12:29;24.90;99.90
9167;DHT22;4618;48.818;9.088;2022-07-26T08:14:55;24.60;99.90
9167;DHT22;4618;48.818;9.088;2022-07-26T08:17:21;24.20;99.90
9167;DHT22;4618;48.818;9.088;2022-07-26T08:19:46;23.90;99.90
9167;DHT22;4618;48.818;9.088;2022-07-26T08:22:12;24.20;99.90
9167;DHT22;4618;48.818;9.088;2022-07-26T08:24:37;24.90;99.90
9167;DHT22;4618;48.818;9.088;2022-07-26T08:27:03;25.20;99.90
9167;DHT22;4618;48.818;9.088;2022-07-26T08:29:29;25.50;99.90
9167;DHT22;4618;48.818;9.088;2022-07-26T08:31:55;25.20;99.90
9167;DHT22;4618;48.818;9.088;2022-07-26T08:34:20;25.10;99.90
9167;DHT22;4618;48.818;9.088;2022-07-26T08:36:47;25.20;99.90
9167;DHT22;4618;48.818;9.088;2022-07-26T08:39:12;24.60;99.90
9167;DHT22;4618;48.818;9.088;2022-07-26T08:41:38;25.00;99.90
9167;DHT22;4618;48.818;9.088;2022-07-26T08:44:08;25.70;99.90
9167;DHT22;4618;48.818;9.088;2022-07-26T08:46:35;26.00;99.90
9167;DHT22;4618;48.818;9.088;2022-07-26T08:49:02;26.00;99.90
9167;DHT22;4618;48.818;9.088;2022-07-26T08:51:30;25.60;99.90
9167;DHT22;4618;48.818;9.088;2022-07-26T08:53:58;24.80;99.90
9167;DHT22;4618;48.818;9.088;2022-07-26T08:56:24;24.90;99.90
9167;DHT22;4618;48.818;9.088;2022-07-26T08:58:50;24.70;99.90
9167;DHT22;4618;48.818;9.088;2022-07-26T09:01:15;25.10;99.90
9167;DHT22;4618;48.818;9.088;2022-07-26T09:03:42;25.90;99.90
9167;DHT22;4618;48.818;9.088;2022-07-26T09:06:13;26.10;99.90
9167;DHT22;4618;48.818;9.088;2022-07-26T09:08:39;25.80;99.90
9167;DHT22;4618;48.818;9.088;2022-07-26T09:11:34;26.60;99.90
9167;DHT22;4618;48.818;9.088;2022-07-26T09:14:04;27.70;99.90
9167;DHT22;4618;48.818;9.088;2022-07-26T09:16:30;27.60;97.40
9167;DHT22;4618;48.818;9.088;2022-07-26T09:19:16;26.70;97.70
9167;DHT22;4618;48.818;9.088;2022-07-26T09:21:43;26.10;98.90
9167;DHT22;4618;48.818;9.088;2022-07-26T09:24:09;26.40;98.70
9167;DHT22;4618;48.818;9.088;2022-07-26T09:26:35;27.00;96.70
9167;DHT22;4618;48.818;9.088;2022-07-26T09:29:11;26.70;96.90
9167;DHT22;4618;48.818;9.088;2022-07-26T09:31:37;25.90;95.70
9167;DHT22;4618;48.818;9.088;2022-07-26T09:34:05;25.50;97.20
9167;DHT22;4618;48.818;9.088;2022-07-26T09:36:31;25.40;96.60
9167;DHT22;4618;48.818;9.088;2022-07-26T09:39:00;24.80;97.90
9167;DHT22;4618;48.818;9.088;2022-07-26T09:41:30;25.10;98.30
9167;DHT22;4618;48.818;9.088;2022-07-26T09:44:01;25.10;98.50
9167;DHT22;4618;48.818;9.088;2022-07-26T09:46:28;25.40;98.30
9167;DHT22;4618;48.818;9.088;2022-07-26T09:48:55;26.20;97.20
9167;DHT22;4618;48.818;9.088;2022-07-26T09:51:36;26.10;96.20
9167;DHT22;4618;48.818;9.088;2022-07-26T09:54:02;26.30;95.70
9167;DHT22;4618;48.818;9.088;2022-07-26T09:56:50;26.20;99.90
9167;DHT22;4618;48.818;9.088;2022-07-26T09:59:18;27.00;94.80
9167;DHT22;4618;48.818;9.088;2022-07-26T10:01:44;26.70;94.40
9167;DHT22;4618;48.818;9.088;2022-07-26T10:04:11;27.50;95.10
9167;DHT22;4618;48.818;9.088;2022-07-26T10:06:37;27.50;70.00
9167;DHT22;4618;48.818;9.088;2022-07-26T10:09:03;27.40;69.00
9167;DHT22;4618;48.818;9.088;2022-07-26T10:11:40;27.60;69.00
9167;DHT22;4618;48.818;9.088;2022-07-26T10:16:57;27.40;68.10
9167;DHT22;4618;48.818;9.088;2022-07-26T10:19:40;28.20;67.90
9167;DHT22;4618;48.818;9.088;2022-07-26T10:22:25;28.30;63.40
9167;DHT22;4618;48.818;9.088;2022-07-26T10:24:52;28.00;60.40
9167;DHT22;4618;48.818;9.088;2022-07-26T10:27:40;27.70;60.50
9167;DHT22;4618;48.818;9.088;2022-07-26T10:38:24;28.70;56.70
9167;DHT22;4618;48.818;9.088;2022-07-26T10:41:04;28.70;54.60
9167;DHT22;4618;48.818;9.088;2022-07-26T10:43:33;28.70;52.70
9167;DHT22;4618;48.818;9.088;2022-07-26T10:48:59;29.30;48.00
9167;DHT22;4618;48.818;9.088;2022-07-26T10:51:33;27.80;48.10
9167;DHT22;4618;48.818;9.088;2022-07-26T10:54:00;27.00;51.30
9167;DHT22;4618;48.818;9.088;2022-07-26T10:56:28;26.90;51.00
9167;DHT22;4618;48.818;9.088;2022-07-26T10:58:53;27.10;51.20
9167;DHT22;4618;48.818;9.088;2022-07-26T11:01:19;27.90;50.80
9167;DHT22;4618;48.818;9.088;2022-07-26T11:03:45;28.40;47.70
9167;DHT22;4618;48.818;9.088;2022-07-26T11:06:16;28.80;46.80
9167;DHT22;4618;48.818;9.088;2022-07-26T11:08:46;28.60;45.20
9167;DHT22;4618;48.818;9.088;2022-07-26T11:11:13;28.90;43.80
9167;DHT22;4618;48.818;9.088;2022-07-26T11:13:39;28.00;44.30
9167;DHT22;4618;48.818;9.088;2022-07-26T11:16:07;27.80;42.90
9167;DHT22;4618;48.818;9.088;2022-07-26T11:18:35;27.60;44.10
9167;DHT22;4618;48.818;9.088;2022-07-26T11:23:39;28.20;45.60
9167;DHT22;4618;48.818;9.088;2022-07-26T11:26:17;30.00;44.00
9167;DHT22;4618;48.818;9.088;2022-07-26T11:31:18;28.60;35.70
9167;DHT22;4618;48.818;9.088;2022-07-26T11:33:47;28.90;36.20
9167;DHT22;4618;48.818;9.088;2022-07-26T11:36:17;29.70;33.60
9167;DHT22;4618;48.818;9.088;2022-07-26T11:41:10;30.10;31.70
9167;DHT22;4618;48.818;9.088;2022-07-26T11:43:37;30.50;29.40
9167;DHT22;4618;48.818;9.088;2022-07-26T11:46:02;29.70;27.20
9167;DHT22;4618;48.818;9.088;2022-07-26T11:48:29;29.00;29.00
9167;DHT22;4618;48.818;9.088;2022-07-26T11:51:19;28.70;29.60
9167;DHT22;4618;48.818;9.088;2022-07-26T11:53:46;28.50;29.40
9167;DHT22;4618;48.818;9.088;2022-07-26T11:56:21;29.20;29.30
9167;DHT22;4618;48.818;9.088;2022-07-26T11:58:49;29.80;26.50
9167;DHT22;4618;48.818;9.088;2022-07-26T12:01:17;28.70;24.40
9167;DHT22;4618;48.818;9.088;2022-07-26T12:03:46;28.40;27.10
9167;DHT22;4618;48.818;9.088;2022-07-26T12:06:15;27.80;28.00
9167;DHT22;4618;48.818;9.088;2022-07-26T12:08:42;26.90;29.60
9167;DHT22;4618;48.818;9.088;2022-07-26T12:11:09;26.60;30.00
9167;DHT22;4618;48.818;9.088;2022-07-26T12:14:00;28.30;29.80
9167;DHT22;4618;48.818;9.088;2022-07-26T12:16:39;29.60;24.50
9167;DHT22;4618;48.818;9.088;2022-07-26T12:19:08;29.40;22.30
9167;DHT22;4618;48.818;9.088;2022-07-26T12:22:13;27.40;23.80
9167;DHT22;4618;48.818;9.088;2022-07-26T12:24:42;28.10;25.40
9167;DHT22;4618;48.818;9.088;2022-07-26T12:27:09;29.60;22.80
9167;DHT22;4618;48.818;9.088;2022-07-26T12:29:37;30.20;21.10
9167;DHT22;4618;48.818;9.088;2022-07-26T12:32:10;30.90;18.30
9167;DHT22;4618;48.818;9.088;2022-07-26T12:34:36;31.30;17.70
9167;DHT22;4618;48.818;9.088;2022-07-26T12:37:07;31.60;15.00
9167;DHT22;4618;48.818;9.088;2022-07-26T12:39:33;31.90;14.30
9167;DHT22;4618;48.818;9.088;2022-07-26T12:41:58;32.20;11.80
9167;DHT22;4618;48.818;9.088;2022-07-26T12:44:24;31.90;10.40
9167;DHT22;4618;48.818;9.088;2022-07-26T12:46:50;30.20;27.70
9167;DHT22;4618;48.818;9.088;2022-07-26T12:49:15;29.10;13.10
9167;DHT22;4618;48.818;9.088;2022-07-26T12:51:41;30.00;13.40
9167;DHT22;4618;48.818;9.088;2022-07-26T12:54:07;30.70;9.50
9167;DHT22;4618;48.818;9.088;2022-07-26T12:56:33;29.70;9.40
9167;DHT22;4618;48.818;9.088;2022-07-26T12:58:58;29.70;9.90
9167;DHT22;4618;48.818;9.088;2022-07-26T13:01:28;30.50;9.90
9167;DHT22;4618;48.818;9.088;2022-07-26T13:03:54;31.50;6.90
9167;DHT22;4618;48.818;9.088;2022-07-26T13:06:20;32.20;13.80
9167;DHT22;4618;48.818;9.088;2022-07-26T13:08:46;33.10;5.30
9167;DHT22;4618;48.818;9.088;2022-07-26T13:11:12;33.70;4.70
9167;DHT22;4618;48.818;9.088;2022-07-26T13:13:37;33.70;2.40
9167;DHT22;4618;48.818;9.088;2022-07-26T13:16:03;33.10;1.00
9167;DHT22;4618;48.818;9.088;2022-07-26T13:18:29;31.90;1.80
9167;DHT22;4618;48.818;9.088;2022-07-26T13:20:55;30.40;2.70
9167;DHT22;4618;48.818;9.088;2022-07-26T13:23:21;29.80;3.20
9167;DHT22;4618;48.818;9.088;2022-07-26T13:25:46;30.30;4.80
9167;DHT22;4618;48.818;9.088;2022-07-26T13:28:12;30.70;2.90
9167;DHT22;4618;48.818;9.088;2022-07-26T13:30:38;32.30;2.30
9167;DHT22;4618;48.818;9.088;2022-07-26T13:33:06;32.80;1.00
9167;DHT22;4618;48.818;9.088;2022-07-26T13:35:32;33.80;1.00
9167;DHT22;4618;48.818;9.088;2022-07-26T13:37:58;33.10;1.00
9167;DHT22;4618;48.818;9.088;2022-07-26T13:40:23;31.50;1.00
9167;DHT22;4618;48.818;9.088;2022-07-26T13:42:49;30.30;1.00
9167;DHT22;4618;48.818;9.088;2022-07-26T13:45:14;31.50;1.00
9167;DHT22;4618;48.818;9.088;2022-07-26T13:47:40;32.70;1.00
9167;DHT22;4618;48.818;9.088;2022-07-26T13:50:06;32.30;1.00
9167;DHT22;4618;48.818;9.088;2022-07-26T13:52:32;31.60;1.00
9167;DHT22;4618;48.818;9.088;2022-07-26T13:54:58;30.30;1.00
9167;DHT22;4618;48.818;9.088;2022-07-26T13:57:23;29.10;1.00
9167;DHT22;4618;48.818;9.088;2022-07-26T13:59:49;29.70;1.00
9167;DHT22;4618;48.818;9.088;2022-07-26T14:02:14;30.60;1.00
9167;DHT22;4618;48.818;9.088;2022-07-26T14:04:40;29.80;1.00
9167;DHT22;4618;48.818;9.088;2022-07-26T14:07:06;29.30;1.00
9167;DHT22;4618;48.818;9.088;2022-07-26T14:09:32;28.50;1.00
9167;DHT22;4618;48.818;9.088;2022-07-26T14:11:58;29.10;1.00
9167;DHT22;4618;48.818;9.088;2022-07-26T14:14:25;29.60;1.00
9167;DHT22;4618;48.818;9.088;2022-07-26T14:16:50;30.10;1.00
9167;DHT22;4618;48.818;9.088;2022-07-26T14:19:16;31.30;1.00
9167;DHT22;4618;48.818;9.088;2022-07-26T14:21:42;32.20;1.00
9167;DHT22;4618;48.818;9.088;2022-07-26T14:24:08;33.00;1.00
9167;DHT22;4618;48.818;9.088;2022-07-26T14:26:33;32.90;1.00
9167;DHT22;4618;48.818;9.088;2022-07-26T14:28:59;32.50;1.00
9167;DHT22;4618;48.818;9.088;2022-07-26T14:31:24;32.20;1.00
9167;DHT22;4618;48.818;9.088;2022-07-26T14:33:51;32.30;1.00
9167;DHT22;4618;48.818;9.088;2022-07-26T14:36:16;32.70;1.00
9167;DHT22;4618;48.818;9.088;2022-07-26T14:38:43;32.20;1.00
9167;DHT22;4618;48.818;9.088;2022-07-26T14:41:10;30.70;1.00
9167;DHT22;4618;48.818;9.088;2022-07-26T14:43:35;29.40;1.00
9167;DHT22;4618;48.818;9.088;2022-07-26T14:46:03;29.60;1.00
9167;DHT22;4618;48.818;9.088;2022-07-26T14:48:29;31.00;1.00
9167;DHT22;4618;48.818;9.088;2022-07-26T14:50:58;32.30;1.00
9167;DHT22;4618;48.818;9.088;2022-07-26T14:53:26;32.80;1.00
9167;DHT22;4618;48.818;9.088;2022-07-26T14:55:52;32.30;1.00
9167;DHT22;4618;48.818;9.088;2022-07-26T14:58:17;31.60;1.00
9167;DHT22;4618;48.818;9.088;2022-07-26T15:00:43;29.90;1.00
9167;DHT22;4618;48.818;9.088;2022-07-26T15:03:09;29.10;1.00
9167;DHT22;4618;48.818;9.088;2022-07-26T15:05:35;28.70;1.00
9167;DHT22;4618;48.818;9.088;2022-07-26T15:08:01;28.90;1.00
9167;DHT22;4618;48.818;9.088;2022-07-26T15:10:26;29.30;1.00
9167;DHT22;4618;48.818;9.088;2022-07-26T15:12:59;30.50;1.00
9167;DHT22;4618;48.818;9.088;2022-07-26T15:15:26;31.60;1.00
9167;DHT22;4618;48.818;9.088;2022-07-26T15:17:52;32.00;1.00
9167;DHT22;4618;48.818;9.088;2022-07-26T15:20:18;32.00;1.00
9167;DHT22;4618;48.818;9.088;2022-07-26T15:22:44;32.00;1.00
9167;DHT22;4618;48.818;9.088;2022-07-26T15:25:10;32.60;1.00
9167;DHT22;4618;48.818;9.088;2022-07-26T15:27:36;32.50;3.10
9167;DHT22;4618;48.818;9.088;2022-07-26T15:30:03;32.60;1.00
9167;DHT22;4618;48.818;9.088;2022-07-26T15:32:29;32.40;1.00
9167;DHT22;4618;48.818;9.088;2022-07-26T15:34:54;32.60;1.00
9167;DHT22;4618;48.818;9.088;2022-07-26T15:37:20;32.80;1.00
9167;DHT22;4618;48.818;9.088;2022-07-26T15:39:46;31.70;1.00
9167;DHT22;4618;48.818;9.088;2022-07-26T15:42:11;31.50;1.00
9167;DHT22;4618;48.818;9.088;2022-07-26T15:44:37;31.10;1.00
9167;DHT22;4618;48.818;9.088;2022-07-26T15:47:03;30.10;1.00
9167;DHT22;4618;48.818;9.088;2022-07-26T15:49:28;29.00;1.00
9167;DHT22;4618;48.818;9.088;2022-07-26T15:51:54;28.40;1.00
9167;DHT22;4618;48.818;9.088;2022-07-26T15:54:20;28.10;1.00
9167;DHT22;4618;48.818;9.088;2022-07-26T15:56:45;27.90;1.00
9167;DHT22;4618;48.818;9.088;2022-07-26T15:59:11;27.80;1.00
9167;DHT22;4618;48.818;9.088;2022-07-26T16:01:36;28.60;1.00
9167;DHT22;4618;48.818;9.088;2022-07-26T16:04:03;29.90;1.00
9167;DHT22;4618;48.818;9.088;2022-07-26T16:06:30;30.80;1.00
9167;DHT22;4618;48.818;9.088;2022-07-26T16:08:56;30.70;1.00
9167;DHT22;4618;48.818;9.088;2022-07-26T16:11:21;30.00;1.00
9167;DHT22;4618;48.818;9.088;2022-07-26T16:13:47;28.90;1.00
9167;DHT22;4618;48.818;9.088;2022-07-26T16:16:13;28.30;1.00
9167;DHT22;4618;48.818;9.088;2022-07-26T16:18:39;28.00;1.00
9167;DHT22;4618;48.818;9.088;2022-07-26T16:21:05;27.90;1.00
9167;DHT22;4618;48.818;9.088;2022-07-26T16:23:31;28.90;1.00
9167;DHT22;4618;48.818;9.088;2022-07-26T16:25:57;29.40;1.00
9167;DHT22;4618;48.818;9.088;2022-07-26T16:28:22;29.00;1.00